Latest Weather Observations for Cape Bruny AWS

IDT60801

Issued at 3:41 am EST Monday 6 July 2020 (issued every 10 minutes, with the page automatically refreshed every 10 minutes)

About weather observations | Map of weather stations | Latest weather observations for TAS | Other Formats
Station Details ID: 094198 Name: CAPE BRUNY (CAPE BRUNY) Lat: -43.49 Lon: 147.14 Height: 59.7 m
Data from the previous 72 hours. | See also: Recent months at Cape Bruny AWS
Date/Time
EST
Temp
°C
App
Temp
°C
Dew
Point
°C
Rel
Hum
%
Delta-T
°C
Wind Press
QNH
hPa
Press
MSL
hPa
Rain since
9am
mm
Dir  Spd
km/h
Gust
km/h
Spd
kts
Gust
kts
06/03:30am 8.5 0.8 7.1 91 0.7 W 37 48 20 26 1023.0 1023.1 1.6
06/03:00am 8.9 1.0 7.7 92 0.6 WSW 39 48 21 26 1023.3 1023.4 1.2
06/02:30am 8.9 0.9 7.5 91 0.7 WSW 39 48 21 26 1023.1 1023.2 0.8
06/02:00am 8.9 0.9 7.4 90 0.7 WSW 39 50 21 27 1022.9 1023.0 0.8
06/01:30am 9.0 1.0 7.5 90 0.7 W 39 54 21 29 1022.8 1022.9 0.6
06/01:00am 9.1 2.3 7.1 87 0.9 WSW 32 43 17 23 1022.8 1022.9 0.6
06/12:30am 9.0 0.9 7.0 87 0.9 WSW 39 54 21 29 1022.8 1022.9 0.6
06/12:00am 9.2 1.2 7.5 89 0.8 WSW 39 50 21 27 1023.0 1023.1 0.4
 
Date/Time
EST
Temp
°C
App
Temp
°C
Dew
Point
°C
Rel
Hum
%
Delta-T
°C
Wind Press
QNH
hPa
Press
MSL
hPa
Rain since
9am
mm
Dir  Spd
km/h
Gust
km/h
Spd
kts
Gust
kts
05/11:30pm 9.9 2.6 7.2 83 1.3 WSW 35 50 19 27 1022.8 1022.9 0.2
05/11:00pm 9.5 2.2 7.3 86 1.0 W 35 43 19 23 1022.9 1023.0 0.2
05/10:30pm 9.9 4.0 7.7 86 1.1 W 28 35 15 19 1022.8 1022.9 0.2
05/10:00pm 10.2 4.3 7.6 84 1.2 W 28 35 15 19 1022.9 1023.0 0.0
05/09:30pm 10.1 3.4 7.5 84 1.2 W 32 43 17 23 1022.6 1022.7 0.0
05/09:00pm 10.0 3.2 7.1 82 1.4 W 32 39 17 21 1022.4 1022.5 0.0
05/08:30pm 10.2 1.4 7.1 81 1.5 WSW 43 56 23 30 1022.3 1022.4 0.0
05/08:00pm 9.9 0.4 6.8 81 1.5 WSW 46 57 25 31 1022.3 1022.4 0.0
05/07:43pm 10.0 3.2 7.8 86 1.1 W 33 52 18 28 1022.3 1022.4 0.0
05/07:30pm 9.9 2.6 7.3 84 1.2 W 35 43 19 23 1022.3 1022.4 0.0
05/07:00pm 9.8 1.0 7.4 85 1.1 W 43 56 23 30 1021.9 1022.0 0.0
05/06:30pm 10.0 1.3 7.8 86 1.1 WSW 43 56 23 30 1021.8 1021.9 0.0
05/06:00pm 9.9 1.3 8.2 89 0.8 WSW 43 54 23 29 1021.7 1021.8 0.0
05/05:30pm 10.0 1.4 8.3 89 0.8 WSW 43 56 23 30 1021.3 1021.4 0.0
05/05:00pm 10.0 3.0 8.3 89 0.8 WSW 35 48 19 26 1021.0 1021.1 0.0
05/04:30pm 10.0 2.6 8.3 89 0.8 WSW 37 46 20 25 1020.9 1021.0 0.0
05/04:00pm 9.9 2.1 8.3 90 0.8 WSW 39 48 21 26 1020.8 1020.9 0.0
05/03:30pm 9.9 1.7 8.3 90 0.8 WSW 41 54 22 29 1020.6 1020.7 0.0
05/03:00pm 10.2 2.0 8.3 88 0.9 WSW 41 50 22 27 1020.6 1020.7 0.0
05/02:30pm 10.0 2.7 8.6 91 0.7 WSW 37 48 20 26 1020.4 1020.5 0.0
05/02:00pm 10.2 2.9 8.6 90 0.8 WSW 37 46 20 25 1020.3 1020.4 0.0
05/01:30pm 10.5 3.1 8.4 87 1.0 WSW 37 46 20 25 1020.0 1020.1 0.0
05/01:00pm 10.5 2.7 8.3 86 1.1 WSW 39 56 21 30 1020.2 1020.3 0.0
05/12:30pm 10.7 2.7 7.6 81 1.5 WSW 39 52 21 28 1020.4 1020.5 0.0
05/12:00pm 10.8 3.5 8.6 86 1.1 WSW 37 50 20 27 1020.6 1020.7 0.0
05/11:30am 10.6 3.0 7.7 82 1.4 WSW 37 54 20 29 1020.7 1020.8 0.0
05/11:26am 10.9 3.0 8.0 82 1.4 WSW 39 57 21 31 1020.7 1020.8 0.0
05/11:00am 10.6 1.9 7.7 82 1.4 WSW 43 56 23 30 1020.7 1020.8 0.0
05/10:30am 10.0 1.8 8.1 88 0.9 WSW 41 56 22 30 1020.5 1020.6 0.0
05/10:16am 10.6 3.2 8.4 86 1.1 WSW 37 56 20 30 1020.4 1020.5 0.0
05/10:00am 10.1 1.5 8.0 87 1.0 WSW 43 52 23 28 1020.2 1020.3 0.0
05/09:30am 9.8 1.6 8.2 90 0.8 WSW 41 59 22 32 1020.0 1020.1 0.0
05/09:00am 9.4 0.8 8.0 91 0.7 WSW 43 61 23 33 1019.6 1019.7 3.4
05/08:55am 9.5 1.7 8.1 91 0.7 WSW 39 61 21 33 1019.5 1019.6 3.2
05/08:30am 9.5 1.2 7.9 90 0.8 WSW 41 54 22 29 1019.4 1019.5 3.2
05/08:00am 9.6 0.8 8.0 90 0.8 WSW 44 65 24 35 1018.8 1019.0 3.2
05/07:48am 9.5 0.7 7.9 90 0.8 WSW 44 65 24 35 1018.7 1018.9 3.2
05/07:30am 9.6 0.4 8.0 90 0.8 WSW 46 57 25 31 1018.4 1018.6 3.2
05/07:00am 9.7 1.0 8.3 91 0.7 WSW 44 57 24 31 1017.9 1018.1 3.2
05/06:30am 9.5 0.3 8.1 91 0.7 WSW 46 57 25 31 1017.5 1017.6 3.0
05/06:21am 9.6 0.9 8.4 92 0.6 WSW 44 63 24 34 1017.4 1017.5 3.0
05/06:00am 9.5 0.0 8.3 92 0.6 WSW 48 59 26 32 1017.1 1017.2 3.0
05/05:30am 9.5 0.0 8.3 92 0.6 WSW 48 65 26 35 1017.0 1017.1 2.8
05/05:00am 9.4 0.8 8.2 92 0.6 WSW 43 54 23 29 1016.8 1016.9 2.8
05/04:30am 9.4 -0.2 8.0 91 0.7 WSW 48 61 26 33 1016.8 1016.9 2.6
05/04:14am 9.3 0.6 7.9 91 0.7 WSW 43 63 23 34 1016.8 1016.9 2.6
05/04:00am 9.4 1.9 8.0 91 0.7 W 37 50 20 27 1016.8 1016.9 2.6
05/03:30am 9.5 0.7 8.1 91 0.7 WSW 44 56 24 30 1016.8 1016.9 2.6
05/03:00am 9.5 0.8 7.8 89 0.8 WSW 43 56 23 30 1016.9 1017.0 2.6
05/02:30am 9.5 1.2 7.8 89 0.8 WSW 41 54 22 29 1016.7 1016.8 2.6
05/02:03am 9.5 0.8 7.9 90 0.8 WSW 43 63 23 34 1016.8 1016.9 2.6
05/02:00am 9.3 0.6 7.6 89 0.8 WSW 43 57 23 31 1016.8 1016.9 2.6
05/01:40am 9.4 0.1 7.7 89 0.8 WSW 46 65 25 35 1016.5 1016.6 2.6
05/01:30am 9.3 -0.7 7.7 90 0.8 WSW 50 63 27 34 1016.5 1016.6 2.6
05/01:11am 9.5 0.6 7.8 89 0.8 WSW 44 63 24 34 1016.5 1016.6 2.4
05/01:00am 9.5 -0.6 7.4 87 1.0 WSW 50 61 27 33 1016.6 1016.7 2.4
05/12:30am 9.4 -0.3 7.7 89 0.8 WSW 48 69 26 37 1016.9 1017.0 2.4
05/12:05am 9.4 0.2 8.0 91 0.7 WSW 46 65 25 35 1016.6 1016.7 2.4
05/12:00am 9.1 -1.0 7.5 90 0.8 WSW 50 65 27 35 1016.6 1016.7 2.4
 
Date/Time
EST
Temp
°C
App
Temp
°C
Dew
Point
°C
Rel
Hum
%
Delta-T
°C
Wind Press
QNH
hPa
Press
MSL
hPa
Rain since
9am
mm
Dir  Spd
km/h
Gust
km/h
Spd
kts
Gust
kts
04/11:40pm 9.5 -0.1 7.9 90 0.8 WSW 48 67 26 36 1016.6 1016.7 2.4
04/11:30pm 9.5 -0.9 7.9 90 0.8 WSW 52 69 28 37 1016.5 1016.6 2.4
04/11:08pm 9.4 0.2 8.0 91 0.7 WSW 46 65 25 35 1016.5 1016.6 2.2
04/11:00pm 9.3 -0.7 7.9 91 0.7 WSW 50 65 27 35 1016.5 1016.6 2.2
04/10:30pm 9.5 0.3 7.9 90 0.8 WSW 46 67 25 36 1016.2 1016.3 2.0
04/10:06pm 9.7 2.5 7.6 87 1.0 SW 35 57 19 31 1016.3 1016.4 2.0
04/10:00pm 9.6 2.0 7.5 87 1.0 WSW 37 54 20 29 1016.3 1016.4 2.0
04/09:30pm 9.6 0.3 7.5 87 1.0 WSW 46 69 25 37 1016.3 1016.4 2.0
04/09:27pm 9.8 1.1 7.7 87 1.0 WSW 43 63 23 34 1016.1 1016.2 2.0
04/09:00pm 9.3 0.5 7.3 87 0.9 WSW 43 59 23 32 1016.1 1016.2 2.0
04/08:30pm 10.2 1.4 7.4 83 1.3 WSW 43 65 23 35 1015.9 1016.0 1.6
04/08:06pm 10.0 1.7 7.6 85 1.2 WSW 41 59 22 32 1016.0 1016.1 1.6
04/08:00pm 9.8 0.4 7.2 84 1.2 WSW 46 61 25 33 1016.0 1016.1 1.6
04/07:30pm 9.7 -0.4 7.6 87 1.0 WSW 50 70 27 38 1015.6 1015.7 1.6
04/07:00pm 9.8 -0.3 7.6 86 1.1 WSW 50 72 27 39 1015.4 1015.5 1.6
04/06:42pm 9.3 0.0 7.6 89 0.8 WSW 46 65 25 35 1015.1 1015.2 1.6
04/06:30pm 9.8 1.0 7.9 88 0.9 WSW 44 59 24 32 1014.8 1014.9 1.6
04/06:04pm 9.5 -1.4 7.4 87 1.0 WSW 54 76 29 41 1014.5 1014.6 1.6
04/06:00pm 9.6 -0.4 7.7 88 0.9 WSW 50 65 27 35 1014.6 1014.7 1.6
04/05:30pm 9.4 0.1 7.5 88 0.9 WSW 46 61 25 33 1014.3 1014.4 1.6
04/05:00pm 9.4 -0.7 7.5 88 0.9 WSW 50 70 27 38 1014.1 1014.2 1.6
04/04:42pm 9.5 -0.6 7.4 87 1.0 WSW 50 69 27 37 1013.9 1014.0 1.6
04/04:30pm 9.5 -1.4 7.3 86 1.0 WSW 54 69 29 37 1013.7 1013.8 1.6
04/04:00pm 9.6 0.6 7.4 86 1.0 WSW 44 65 24 35 1013.7 1013.8 1.6
04/03:48pm 9.3 0.3 7.4 88 0.9 WSW 44 65 24 35 1013.5 1013.6 1.6
04/03:30pm 10.0 0.4 8.1 88 0.9 WSW 48 61 26 33 1013.4 1013.5 1.6
04/03:10pm 9.4 -0.3 7.5 88 0.9 WSW 48 67 26 36 1013.1 1013.2 1.6
04/03:00pm 9.5 -0.9 7.8 89 0.8 WSW 52 67 28 36 1013.0 1013.1 1.6
04/02:38pm 9.8 -0.1 8.2 90 0.8 WSW 50 69 27 37 1012.9 1013.0 1.6
04/02:30pm 9.6 -0.4 8.0 90 0.8 WSW 50 67 27 36 1012.9 1013.0 1.6
04/02:02pm 9.7 0.1 8.0 89 0.8 WSW 48 69 26 37 1012.6 1012.7 1.4
04/02:00pm 9.9 0.4 8.2 89 0.8 WSW 48 63 26 34 1012.5 1012.6 1.4
04/01:30pm 9.8 -0.8 8.4 91 0.7 WSW 54 74 29 40 1012.4 1012.5 1.4
04/01:00pm 9.7 -0.2 8.1 90 0.8 WSW 50 70 27 38 1012.4 1012.5 1.2
04/12:30pm 10.0 0.5 8.4 90 0.8 WSW 48 67 26 36 1012.7 1012.8 0.8
04/12:00pm 9.8 -0.1 8.4 91 0.7 WSW 50 65 27 35 1012.7 1012.8 0.6
04/11:30am 10.0 0.1 8.4 90 0.8 WSW 50 69 27 37 1012.6 1012.7 0.4
04/11:19am 10.0 -0.2 8.4 90 0.8 WSW 52 70 28 38 1012.6 1012.7 0.4
04/11:00am 10.0 0.1 8.4 90 0.8 WSW 50 61 27 33 1012.5 1012.6 0.4
04/10:30am 9.8 -0.1 8.2 90 0.8 WSW 50 63 27 34 1012.3 1012.4 0.4
04/10:00am 10.1 0.3 8.5 90 0.8 WSW 50 61 27 33 1012.0 1012.1 0.2
04/09:30am 9.9 0.4 8.5 91 0.7 WSW 48 61 26 33 1011.7 1011.8 0.2
04/09:11am 9.9 0.8 8.5 91 0.7 WSW 46 65 25 35 1011.9 1012.0 0.2
04/09:00am 9.8 1.0 8.2 90 0.8 WSW 44 61 24 33 1011.7 1011.8 5.8
04/08:30am 9.6 -1.1 8.0 90 0.8 WSW 54 65 29 35 1011.6 1011.7 5.8
04/08:09am 9.6 1.4 8.2 91 0.7 W 41 63 22 34 1011.4 1011.5 5.8
04/08:00am 9.4 1.9 8.0 91 0.7 W 37 48 20 26 1011.4 1011.5 5.8
04/07:30am 9.1 1.4 7.2 88 0.9 WSW 37 50 20 27 1011.2 1011.3 5.8
04/07:20am 9.2 4.8 7.2 87 0.9 WSW 20 43 11 23 1011.2 1011.3 5.6
04/07:00am 8.5 4.0 6.0 84 1.1 WNW 19 24 10 13 1011.4 1011.5 5.6
04/06:30am 8.1 3.2 5.0 81 1.4 NW 20 26 11 14 1011.5 1011.6 5.6
04/06:00am 7.9 2.8 4.1 77 1.7 NW 20 28 11 15 1011.4 1011.5 5.6
04/05:30am 7.6 2.6 3.6 76 1.7 NNW 19 26 10 14 1011.8 1011.9 5.6
04/05:00am 7.7 2.5 3.7 76 1.7 NW 20 28 11 15 1012.0 1012.1 5.6
04/04:30am 7.5 0.4 3.6 76 1.7 NW 30 41 16 22 1012.1 1012.2 5.6
04/04:00am 7.6 0.5 3.6 76 1.7 WNW 30 39 16 21 1012.7 1012.8 5.6
04/03:30am 7.1 0.0 3.3 77 1.6 NW 30 41 16 22 1012.9 1013.0 5.6
04/03:00am 7.0 1.8 3.3 77 1.6 WNW 20 28 11 15 1013.5 1013.6 5.6
04/02:30am 6.9 1.2 2.8 75 1.7 NW 22 32 12 17 1013.8 1013.9 5.6
04/02:00am 7.4 0.2 3.1 74 1.8 W 30 41 16 22 1013.7 1013.8 5.6
04/01:30am 7.1 -0.5 3.0 75 1.7 W 32 44 17 24 1013.8 1013.9 5.6
04/01:00am 6.7 -1.0 3.5 80 1.4 WNW 33 41 18 22 1013.9 1014.0 5.6
04/12:32am 6.2 -3.4 3.5 83 1.1 W 43 61 23 33 1013.9 1014.0 5.6
04/12:30am 6.3 -3.4 3.8 84 1.1 WSW 44 61 24 33 1014.0 1014.1 5.6
04/12:28am 6.8 -2.2 4.3 84 1.1 WSW 41 59 22 32 1014.1 1014.2 5.6
04/12:00am 6.6 -2.0 4.6 87 0.9 WSW 39 52 21 28 1014.1 1014.2 5.4
 
Date/Time
EST
Temp
°C
App
Temp
°C
Dew
Point
°C
Rel
Hum
%
Delta-T
°C
Wind Press
QNH
hPa
Press
MSL
hPa
Rain since
9am
mm
Dir  Spd
km/h
Gust
km/h
Spd
kts
Gust
kts
03/11:30pm 7.2 -1.4 4.5 83 1.2 W 39 48 21 26 1014.2 1014.3 5.4
03/11:00pm 7.2 -0.2 4.0 80 1.4 W 32 44 17 24 1014.4 1014.5 5.2
03/10:30pm 7.5 -0.9 3.7 77 1.6 W 37 46 20 25 1013.9 1014.0 5.2
03/10:00pm 7.4 -1.3 4.0 79 1.5 W 39 52 21 28 1013.9 1014.0 5.2
03/09:30pm 7.2 -0.8 3.8 79 1.5 W 35 46 19 25 1013.9 1014.0 5.2
03/09:22pm 7.3 -1.0 4.4 82 1.3 W 37 56 20 30 1013.9 1014.0 5.2
03/09:00pm 7.4 -2.0 4.5 82 1.3 W 43 54 23 29 1013.9 1014.0 5.2
03/08:30pm 7.1 -1.5 4.4 83 1.2 W 39 54 21 29 1013.8 1013.9 5.2
03/08:02pm 7.1 -1.9 4.6 84 1.1 W 41 59 22 32 1013.8 1013.9 5.2
03/08:00pm 7.2 -2.2 4.7 84 1.1 W 43 59 23 32 1013.8 1013.9 5.2
03/07:34pm 7.4 -0.4 4.9 84 1.1 W 35 54 19 29 1013.6 1013.7 5.2
03/07:30pm 7.4 0.2 4.9 84 1.1 W 32 43 17 23 1013.6 1013.7 5.2
03/07:00pm 7.3 -0.9 5.0 85 1.0 W 37 44 20 24 1013.3 1013.4 5.0
03/06:30pm 7.1 0.3 5.3 88 0.8 W 30 39 16 21 1012.9 1013.0 5.0
03/06:00pm 7.4 -0.3 5.4 87 0.9 WNW 35 48 19 26 1012.7 1012.8 4.8
03/05:30pm 7.2 -1.3 5.2 87 0.9 W 39 46 21 25 1012.4 1012.5 4.6
03/05:06pm 8.3 -1.0 5.2 81 1.4 WSW 43 63 23 34 1012.0 1012.1 4.6
03/05:00pm 7.7 -1.3 4.3 79 1.5 WSW 41 50 22 27 1012.2 1012.3 4.6
03/04:30pm 7.4 -1.0 5.4 87 0.9 W 39 43 21 23 1011.9 1012.0 4.6
03/04:00pm 7.5 -0.3 5.0 84 1.1 W 35 50 19 27 1011.6 1011.7 4.6
03/03:54pm 7.6 -0.1 5.4 86 1.0 W 35 54 19 29 1011.4 1011.5 4.6
03/03:30pm 7.9 -0.5 5.4 84 1.1 WSW 39 54 21 29 1011.2 1011.3 4.6
03/03:00pm 8.3 0.8 6.1 86 1.0 WSW 35 48 19 26 1011.0 1011.1 4.4
03/02:33pm 8.3 0.4 6.4 88 0.9 W 37 56 20 30 1010.8 1010.9 4.4
03/02:30pm 8.2 -0.1 6.3 88 0.9 W 39 56 21 30 1010.7 1010.8 4.4
03/02:00pm 8.1 1.0 6.2 88 0.9 W 33 44 18 24 1010.6 1010.7 4.0
03/01:30pm 8.0 -0.3 6.0 87 0.9 W 39 50 21 27 1010.3 1010.4 4.0
03/01:00pm 8.5 1.5 6.0 84 1.1 W 32 46 17 25 1010.2 1010.3 3.8
03/12:30pm 8.2 1.6 6.0 86 1.0 W 30 39 16 21 1010.1 1010.2 3.8
03/12:00pm 8.3 0.4 6.4 88 0.9 W 37 44 20 24 1009.8 1009.9 3.6
03/11:30am 7.9 1.0 6.4 90 0.7 WNW 32 39 17 21 1009.5 1009.6 3.6
03/11:00am 7.0 -0.3 5.6 91 0.6 WNW 33 46 18 25 1009.4 1009.5 3.4
03/10:30am 6.1 -0.8 4.4 89 0.7 WNW 30 41 16 22 1009.3 1009.4 2.0
03/10:00am 6.4 -0.8 4.9 90 0.7 WNW 32 43 17 23 1009.0 1009.1 1.0
03/09:30am 6.1 -2.2 4.1 87 0.9 WNW 37 46 20 25 1008.6 1008.7 0.2
03/09:00am 6.6 -1.7 4.3 85 1.0 WNW 37 50 20 27 1008.0 1008.1 1.6
03/08:30am 6.5 -2.2 4.0 84 1.1 WNW 39 48 21 26 1007.7 1007.8 1.4
03/08:00am 6.2 -2.2 3.7 84 1.1 WNW 37 46 20 25 1007.2 1007.3 1.4
03/07:30am 7.3 -0.1 3.9 79 1.5 W 32 41 17 22 1006.9 1007.0 1.4
03/07:00am 7.6 0.0 2.7 71 2.1 NW 32 43 17 23 1006.2 1006.3 1.4
03/06:30am 7.3 1.5 2.4 71 2.0 NW 22 32 12 17 1006.3 1006.4 1.4
03/06:00am 7.0 1.2 2.1 71 2.0 NNW 22 32 12 17 1006.2 1006.3 1.4
03/05:30am 6.7 0.1 2.0 72 1.9 NW 26 32 14 17 1005.8 1005.9 1.4
03/05:00am 6.6 0.4 2.3 74 1.8 NW 24 30 13 16 1005.8 1005.9 1.4
03/04:30am 6.7 0.6 2.8 76 1.6 NW 24 35 13 19 1005.5 1005.6 1.4
03/04:00am 6.3 0.3 3.1 80 1.3 NW 24 33 13 18 1005.7 1005.8 1.4

Other formats

Comma delimited format used in spreadsheet applications
http://www.bom.gov.au/fwo/IDT60801/IDT60801.95967.axf

JavaScript Object Notation format (JSON) in row-major order
http://www.bom.gov.au/fwo/IDT60801/IDT60801.95967.json

Data quality

Most of these data are generated automatically and are frequently updated. Quality checks on data are not normally performed. It is possible for incorrect values to appear. Refer to information at About Latest Weather Observations and please check the disclaimer before using these data.